sensor_id;sensor_type;location;lat;lon;timestamp;pressure;altitude;pressure_sealevel;temperature;humidity
61035;BME280;46916;40.564;-7.958;2023-07-31T00:00:19;97845.75;;;20.85;59.55
61035;BME280;46916;40.564;-7.958;2023-07-31T00:02:19;97839.16;;;20.81;60.05
61035;BME280;46916;40.564;-7.958;2023-07-31T00:04:20;97841.00;;;20.81;60.35
61035;BME280;46916;40.564;-7.958;2023-07-31T00:06:20;97838.16;;;20.82;60.73
61035;BME280;46916;40.564;-7.958;2023-07-31T00:08:20;97835.09;;;20.85;60.91
61035;BME280;46916;40.564;-7.958;2023-07-31T00:10:21;97840.06;;;20.88;60.52
61035;BME280;46916;40.564;-7.958;2023-07-31T00:12:22;97836.78;;;20.86;60.58
61035;BME280;46916;40.564;-7.958;2023-07-31T00:14:22;97830.81;;;20.84;60.76
61035;BME280;46916;40.564;-7.958;2023-07-31T00:16:23;97833.38;;;20.77;61.06
61035;BME280;46916;40.564;-7.958;2023-07-31T00:18:23;97831.19;;;20.66;61.73
61035;BME280;46916;40.564;-7.958;2023-07-31T00:20:24;97839.91;;;20.60;61.96
61035;BME280;46916;40.564;-7.958;2023-07-31T00:22:25;97839.06;;;20.60;62.21
61035;BME280;46916;40.564;-7.958;2023-07-31T00:24:25;97840.56;;;20.62;61.86
61035;BME280;46916;40.564;-7.958;2023-07-31T00:26:26;97837.88;;;20.62;62.11
61035;BME280;46916;40.564;-7.958;2023-07-31T00:28:26;97836.41;;;20.60;62.39
61035;BME280;46916;40.564;-7.958;2023-07-31T00:30:28;97837.59;;;20.57;62.66
61035;BME280;46916;40.564;-7.958;2023-07-31T00:32:29;97841.94;;;20.58;63.12
61035;BME280;46916;40.564;-7.958;2023-07-31T00:34:30;97837.22;;;20.60;63.27
61035;BME280;46916;40.564;-7.958;2023-07-31T00:36:30;97837.88;;;20.62;62.98
61035;BME280;46916;40.564;-7.958;2023-07-31T00:38:30;97835.22;;;20.62;62.98
61035;BME280;46916;40.564;-7.958;2023-07-31T00:40:34;97835.41;;;20.61;63.21
61035;BME280;46916;40.564;-7.958;2023-07-31T00:42:35;97830.25;;;20.59;63.22
61035;BME280;46916;40.564;-7.958;2023-07-31T00:44:35;97835.31;;;20.54;63.17
61035;BME280;46916;40.564;-7.958;2023-07-31T00:46:36;97824.22;;;20.50;63.64
61035;BME280;46916;40.564;-7.958;2023-07-31T00:48:36;97826.06;;;20.50;63.48
61035;BME280;46916;40.564;-7.958;2023-07-31T00:50:37;97830.16;;;20.52;63.23
61035;BME280;46916;40.564;-7.958;2023-07-31T00:52:39;97830.16;;;20.52;63.37
61035;BME280;46916;40.564;-7.958;2023-07-31T00:54:39;97826.69;;;20.52;63.71
61035;BME280;46916;40.564;-7.958;2023-07-31T00:56:40;97828.88;;;20.48;63.87
61035;BME280;46916;40.564;-7.958;2023-07-31T00:58:41;97831.91;;;20.45;63.77
61035;BME280;46916;40.564;-7.958;2023-07-31T01:00:42;97830.31;;;20.36;64.27
61035;BME280;46916;40.564;-7.958;2023-07-31T01:02:43;97825.72;;;20.30;64.20
61035;BME280;46916;40.564;-7.958;2023-07-31T01:04:43;97825.44;;;20.25;64.87
61035;BME280;46916;40.564;-7.958;2023-07-31T01:09:04;97828.53;;;20.28;64.60
61035;BME280;46916;40.564;-7.958;2023-07-31T01:11:09;97820.56;;;20.28;65.23
61035;BME280;46916;40.564;-7.958;2023-07-31T01:13:13;97820.22;;;20.32;64.38
61035;BME280;46916;40.564;-7.958;2023-07-31T01:15:14;97824.44;;;20.26;64.65
61035;BME280;46916;40.564;-7.958;2023-07-31T01:17:15;97824.78;;;20.23;64.79
61035;BME280;46916;40.564;-7.958;2023-07-31T01:19:17;97817.63;;;20.23;64.47
61035;BME280;46916;40.564;-7.958;2023-07-31T01:27:53;97805.16;;;20.24;64.95
61035;BME280;46916;40.564;-7.958;2023-07-31T01:30:00;97804.81;;;20.27;64.58
61035;BME280;46916;40.564;-7.958;2023-07-31T01:32:04;97802.16;;;20.27;64.73
61035;BME280;46916;40.564;-7.958;2023-07-31T01:34:06;97801.31;;;20.26;64.64
61035;BME280;46916;40.564;-7.958;2023-07-31T01:36:10;97803.31;;;20.24;64.60
61035;BME280;46916;40.564;-7.958;2023-07-31T01:38:11;97793.91;;;20.22;64.81
61035;BME280;46916;40.564;-7.958;2023-07-31T01:40:12;97805.44;;;20.14;65.06
61035;BME280;46916;40.564;-7.958;2023-07-31T01:42:12;97798.34;;;20.07;65.25
61035;BME280;46916;40.564;-7.958;2023-07-31T01:44:13;97795.69;;;20.07;65.01
61035;BME280;46916;40.564;-7.958;2023-07-31T01:46:13;97800.75;;;20.01;65.38
61035;BME280;46916;40.564;-7.958;2023-07-31T01:48:14;97801.22;;;20.05;65.05
61035;BME280;46916;40.564;-7.958;2023-07-31T01:50:15;97802.66;;;20.08;64.91
61035;BME280;46916;40.564;-7.958;2023-07-31T01:52:15;97799.38;;;20.06;65.13
61035;BME280;46916;40.564;-7.958;2023-07-31T01:54:16;97796.72;;;20.06;64.96
61035;BME280;46916;40.564;-7.958;2023-07-31T01:56:16;97786.63;;;20.01;65.25
61035;BME280;46916;40.564;-7.958;2023-07-31T01:58:17;97794.94;;;19.98;65.38
61035;BME280;46916;40.564;-7.958;2023-07-31T02:00:17;97791.28;;;19.99;65.60
61035;BME280;46916;40.564;-7.958;2023-07-31T02:02:18;97792.09;;;19.99;65.34
61035;BME280;46916;40.564;-7.958;2023-07-31T02:04:19;97786.16;;;19.97;65.37
61035;BME280;46916;40.564;-7.958;2023-07-31T02:06:19;97785.34;;;19.97;65.58
61035;BME280;46916;40.564;-7.958;2023-07-31T02:08:20;97787.81;;;19.98;65.24
61035;BME280;46916;40.564;-7.958;2023-07-31T02:10:20;97796.25;;;20.02;65.04
61035;BME280;46916;40.564;-7.958;2023-07-31T02:12:21;97788.06;;;20.03;64.97
61035;BME280;46916;40.564;-7.958;2023-07-31T02:14:21;97788.91;;;20.04;64.91
61035;BME280;46916;40.564;-7.958;2023-07-31T02:16:22;97787.09;;;20.04;64.93
61035;BME280;46916;40.564;-7.958;2023-07-31T02:18:23;97789.44;;;19.99;65.02
61035;BME280;46916;40.564;-7.958;2023-07-31T02:20:23;97788.97;;;19.96;65.23
61035;BME280;46916;40.564;-7.958;2023-07-31T02:22:24;97781.00;;;19.96;65.44
61035;BME280;46916;40.564;-7.958;2023-07-31T02:24:25;97776.53;;;19.96;65.38
61035;BME280;46916;40.564;-7.958;2023-07-31T02:26:25;97771.66;;;19.85;65.90
61035;BME280;46916;40.564;-7.958;2023-07-31T02:28:25;97782.06;;;19.72;66.32
61035;BME280;46916;40.564;-7.958;2023-07-31T02:30:26;97774.44;;;19.69;66.27
61035;BME280;46916;40.564;-7.958;2023-07-31T02:32:26;97772.63;;;19.69;66.56
61035;BME280;46916;40.564;-7.958;2023-07-31T02:34:27;97773.63;;;19.68;66.28
61035;BME280;46916;40.564;-7.958;2023-07-31T02:36:27;97777.16;;;19.61;66.63
61035;BME280;46916;40.564;-7.958;2023-07-31T02:38:29;97773.19;;;19.57;67.00
61035;BME280;46916;40.564;-7.958;2023-07-31T02:40:30;97773.81;;;19.59;66.86
61035;BME280;46916;40.564;-7.958;2023-07-31T02:42:30;97774.16;;;19.64;66.73
61035;BME280;46916;40.564;-7.958;2023-07-31T02:44:31;97778.28;;;19.66;66.38
61035;BME280;46916;40.564;-7.958;2023-07-31T02:46:31;97775.47;;;19.68;66.49
61035;BME280;46916;40.564;-7.958;2023-07-31T02:48:32;97773.63;;;19.68;66.28
61035;BME280;46916;40.564;-7.958;2023-07-31T02:50:32;97780.59;;;19.69;66.28
61035;BME280;46916;40.564;-7.958;2023-07-31T02:52:33;97777.75;;;19.71;66.23
61035;BME280;46916;40.564;-7.958;2023-07-31T02:54:33;97778.22;;;19.74;66.00
61035;BME280;46916;40.564;-7.958;2023-07-31T02:56:34;97777.56;;;19.72;66.11
61035;BME280;46916;40.564;-7.958;2023-07-31T02:58:34;97779.41;;;19.72;65.91
61035;BME280;46916;40.564;-7.958;2023-07-31T03:00:35;97774.91;;;19.72;65.70
61035;BME280;46916;40.564;-7.958;2023-07-31T03:02:35;97773.25;;;19.71;65.92
61035;BME280;46916;40.564;-7.958;2023-07-31T03:04:36;97773.97;;;19.65;66.03
61035;BME280;46916;40.564;-7.958;2023-07-31T03:06:36;97781.97;;;19.57;66.33
61035;BME280;46916;40.564;-7.958;2023-07-31T03:08:37;97779.31;;;19.57;66.55
61035;BME280;46916;40.564;-7.958;2023-07-31T03:10:37;97780.16;;;19.58;66.39
61035;BME280;46916;40.564;-7.958;2023-07-31T03:12:39;97781.63;;;19.60;66.55
61035;BME280;46916;40.564;-7.958;2023-07-31T03:14:40;97779.97;;;19.59;66.71
61035;BME280;46916;40.564;-7.958;2023-07-31T03:16:40;97786.78;;;19.62;66.51
61035;BME280;46916;40.564;-7.958;2023-07-31T03:18:41;97785.63;;;19.64;66.59
61035;BME280;46916;40.564;-7.958;2023-07-31T03:20:42;97781.94;;;19.65;66.04
61035;BME280;46916;40.564;-7.958;2023-07-31T03:22:44;97780.13;;;19.66;66.23
61035;BME280;46916;40.564;-7.958;2023-07-31T03:24:45;97778.63;;;19.63;66.13
61035;BME280;46916;40.564;-7.958;2023-07-31T03:26:45;97780.31;;;19.64;66.00
61035;BME280;46916;40.564;-7.958;2023-07-31T03:28:46;97773.31;;;19.63;66.04
61035;BME280;46916;40.564;-7.958;2023-07-31T03:30:47;97778.63;;;19.63;66.20
61035;BME280;46916;40.564;-7.958;2023-07-31T03:32:49;97772.84;;;19.60;66.18
61035;BME280;46916;40.564;-7.958;2023-07-31T03:34:50;97772.19;;;19.58;66.34
61035;BME280;46916;40.564;-7.958;2023-07-31T03:36:50;97773.88;;;19.50;66.45
61035;BME280;46916;40.564;-7.958;2023-07-31T03:38:53;97773.25;;;19.48;66.80
61035;BME280;46916;40.564;-7.958;2023-07-31T03:40:54;97771.59;;;19.47;66.68
61035;BME280;46916;40.564;-7.958;2023-07-31T03:42:54;97770.75;;;19.47;66.77
61035;BME280;46916;40.564;-7.958;2023-07-31T03:44:55;97765.28;;;19.48;66.35
61035;BME280;46916;40.564;-7.958;2023-07-31T03:46:55;97771.41;;;19.49;66.48
61035;BME280;46916;40.564;-7.958;2023-07-31T03:48:56;97767.94;;;19.48;66.33
61035;BME280;46916;40.564;-7.958;2023-07-31T03:50:56;97770.25;;;19.51;66.38
61035;BME280;46916;40.564;-7.958;2023-07-31T03:52:57;97767.13;;;19.48;66.47
61035;BME280;46916;40.564;-7.958;2023-07-31T03:54:57;97772.78;;;19.45;66.67
61035;BME280;46916;40.564;-7.958;2023-07-31T03:56:58;97767.72;;;19.35;66.86
61035;BME280;46916;40.564;-7.958;2023-07-31T03:58:59;97778.53;;;19.25;67.42
61035;BME280;46916;40.564;-7.958;2023-07-31T04:00:59;97775.78;;;19.19;67.55
61035;BME280;46916;40.564;-7.958;2023-07-31T04:02:59;97776.78;;;19.18;67.70
61035;BME280;46916;40.564;-7.958;2023-07-31T04:05:00;97772.28;;;19.18;67.41
61035;BME280;46916;40.564;-7.958;2023-07-31T04:07:00;97774.06;;;19.26;67.22
61035;BME280;46916;40.564;-7.958;2023-07-31T04:09:02;97774.53;;;19.29;67.31
61035;BME280;46916;40.564;-7.958;2023-07-31T04:11:02;97780.31;;;19.33;66.86
61035;BME280;46916;40.564;-7.958;2023-07-31T04:13:02;97773.38;;;19.32;67.01
61035;BME280;46916;40.564;-7.958;2023-07-31T04:15:03;97771.53;;;19.33;67.11
61035;BME280;46916;40.564;-7.958;2023-07-31T04:17:04;97776.03;;;19.32;66.91
61035;BME280;46916;40.564;-7.958;2023-07-31T04:19:04;97770.19;;;19.37;66.81
61035;BME280;46916;40.564;-7.958;2023-07-31T04:21:05;97773.31;;;19.40;66.53
61035;BME280;46916;40.564;-7.958;2023-07-31T04:23:05;97773.94;;;19.42;66.61
61035;BME280;46916;40.564;-7.958;2023-07-31T04:25:06;97776.44;;;19.44;66.38
61035;BME280;46916;40.564;-7.958;2023-07-31T04:27:06;97776.91;;;19.47;66.43
61035;BME280;46916;40.564;-7.958;2023-07-31T04:29:07;97777.28;;;19.44;66.40
61035;BME280;46916;40.564;-7.958;2023-07-31T04:31:07;97764.81;;;19.45;66.49
61035;BME280;46916;40.564;-7.958;2023-07-31T04:33:09;97775.44;;;19.45;66.58
61035;BME280;46916;40.564;-7.958;2023-07-31T04:35:10;97771.13;;;19.44;66.36
61035;BME280;46916;40.564;-7.958;2023-07-31T04:37:11;97773.13;;;19.42;66.28
61035;BME280;46916;40.564;-7.958;2023-07-31T04:39:11;97768.81;;;19.41;66.31
61035;BME280;46916;40.564;-7.958;2023-07-31T04:41:11;97775.31;;;19.38;66.34
61035;BME280;46916;40.564;-7.958;2023-07-31T04:43:12;97778.34;;;19.35;66.63
61035;BME280;46916;40.564;-7.958;2023-07-31T04:45:12;97765.41;;;19.32;66.66
61035;BME280;46916;40.564;-7.958;2023-07-31T04:47:13;97774.81;;;19.35;66.54
61035;BME280;46916;40.564;-7.958;2023-07-31T04:49:13;97774.00;;;19.34;66.72
61035;BME280;46916;40.564;-7.958;2023-07-31T04:51:14;97774.38;;;19.31;66.74
61035;BME280;46916;40.564;-7.958;2023-07-31T04:53:15;97776.38;;;19.29;66.78
61035;BME280;46916;40.564;-7.958;2023-07-31T04:55:15;97774.88;;;19.26;66.71
61035;BME280;46916;40.564;-7.958;2023-07-31T04:57:15;97768.94;;;19.24;66.86
61035;BME280;46916;40.564;-7.958;2023-07-31T04:59:16;97776.06;;;19.24;66.76
61035;BME280;46916;40.564;-7.958;2023-07-31T05:01:16;97774.44;;;19.23;66.75
61035;BME280;46916;40.564;-7.958;2023-07-31T05:03:17;97776.28;;;19.14;67.22
61035;BME280;46916;40.564;-7.958;2023-07-31T05:05:17;97766.38;;;19.08;67.59
61035;BME280;46916;40.564;-7.958;2023-07-31T05:07:18;97772.53;;;19.09;67.47
61035;BME280;46916;40.564;-7.958;2023-07-31T05:09:18;97779.47;;;19.10;67.83
61035;BME280;46916;40.564;-7.958;2023-07-31T05:11:19;97767.69;;;19.12;67.83
61035;BME280;46916;40.564;-7.958;2023-07-31T05:13:19;97765.31;;;19.17;67.59
61035;BME280;46916;40.564;-7.958;2023-07-31T05:15:20;97767.44;;;19.22;67.60
61035;BME280;46916;40.564;-7.958;2023-07-31T05:17:20;97764.25;;;19.26;67.28
61035;BME280;46916;40.564;-7.958;2023-07-31T05:19:20;97762.63;;;19.25;67.38
61035;BME280;46916;40.564;-7.958;2023-07-31T05:21:21;97767.09;;;19.25;67.39
61035;BME280;46916;40.564;-7.958;2023-07-31T05:23:21;97767.94;;;19.25;67.45
61035;BME280;46916;40.564;-7.958;2023-07-31T05:25:22;97766.28;;;19.24;67.40
61035;BME280;46916;40.564;-7.958;2023-07-31T05:27:22;97771.78;;;19.23;67.53
61035;BME280;46916;40.564;-7.958;2023-07-31T05:29:23;97766.47;;;19.23;67.82
61035;BME280;46916;40.564;-7.958;2023-07-31T05:31:23;97771.78;;;19.23;67.67
61035;BME280;46916;40.564;-7.958;2023-07-31T05:33:24;97774.44;;;19.23;67.26
61035;BME280;46916;40.564;-7.958;2023-07-31T05:35:25;97775.59;;;19.20;67.39
61035;BME280;46916;40.564;-7.958;2023-07-31T05:37:25;97778.78;;;19.16;67.64
61035;BME280;46916;40.564;-7.958;2023-07-31T05:39:26;97774.81;;;19.12;67.74
61035;BME280;46916;40.564;-7.958;2023-07-31T05:41:26;97789.13;;;19.11;67.80
61035;BME280;46916;40.564;-7.958;2023-07-31T05:43:26;97780.28;;;19.10;67.79
61035;BME280;46916;40.564;-7.958;2023-07-31T05:45:27;97781.97;;;19.11;67.81
61035;BME280;46916;40.564;-7.958;2023-07-31T05:47:27;97782.78;;;19.12;67.72
61035;BME280;46916;40.564;-7.958;2023-07-31T05:49:28;97781.97;;;19.11;67.90
61035;BME280;46916;40.564;-7.958;2023-07-31T05:51:28;97779.13;;;19.13;67.90
61035;BME280;46916;40.564;-7.958;2023-07-31T05:53:29;97780.78;;;19.14;67.90
61035;BME280;46916;40.564;-7.958;2023-07-31T05:55:29;97780.78;;;19.14;67.72
61035;BME280;46916;40.564;-7.958;2023-07-31T05:57:30;97780.78;;;19.14;67.87
61035;BME280;46916;40.564;-7.958;2023-07-31T05:59:30;97784.63;;;19.11;67.81
61035;BME280;46916;40.564;-7.958;2023-07-31T06:01:33;97785.78;;;19.09;68.00
61035;BME280;46916;40.564;-7.958;2023-07-31T06:03:33;97782.31;;;19.08;67.91
61035;BME280;46916;40.564;-7.958;2023-07-31T06:05:34;97783.13;;;19.09;67.88
61035;BME280;46916;40.564;-7.958;2023-07-31T06:07:35;97785.78;;;19.09;67.89
61035;BME280;46916;40.564;-7.958;2023-07-31T06:09:35;97786.97;;;19.06;68.08
61035;BME280;46916;40.564;-7.958;2023-07-31T06:11:36;97783.47;;;19.05;68.13
61035;BME280;46916;40.564;-7.958;2023-07-31T06:13:36;97776.19;;;19.08;67.91
61035;BME280;46916;40.564;-7.958;2023-07-31T06:15:37;97785.16;;;19.07;67.84
61035;BME280;46916;40.564;-7.958;2023-07-31T06:17:37;97788.78;;;19.05;68.10
61035;BME280;46916;40.564;-7.958;2023-07-31T06:19:38;97788.78;;;19.05;68.07
61035;BME280;46916;40.564;-7.958;2023-07-31T06:21:38;97790.81;;;19.03;67.92
61035;BME280;46916;40.564;-7.958;2023-07-31T06:23:39;97790.13;;;19.01;68.09
61035;BME280;46916;40.564;-7.958;2023-07-31T06:25:39;97790.81;;;19.03;68.10
61035;BME280;46916;40.564;-7.958;2023-07-31T06:27:40;97792.63;;;19.03;67.98
61035;BME280;46916;40.564;-7.958;2023-07-31T06:29:41;97793.63;;;19.02;67.98
61035;BME280;46916;40.564;-7.958;2023-07-31T06:31:42;97791.63;;;19.04;67.98
61035;BME280;46916;40.564;-7.958;2023-07-31T06:33:43;97795.78;;;19.07;67.94
61035;BME280;46916;40.564;-7.958;2023-07-31T06:35:43;97793.28;;;19.05;67.96
61035;BME280;46916;40.564;-7.958;2023-07-31T06:37:44;97794.75;;;19.08;67.74
61035;BME280;46916;40.564;-7.958;2023-07-31T06:39:44;97797.41;;;19.08;67.80
61035;BME280;46916;40.564;-7.958;2023-07-31T06:41:45;97801.91;;;19.07;67.87
61035;BME280;46916;40.564;-7.958;2023-07-31T06:43:45;97795.44;;;19.01;68.17
61035;BME280;46916;40.564;-7.958;2023-07-31T06:45:46;97797.63;;;18.98;68.08
61035;BME280;46916;40.564;-7.958;2023-07-31T06:47:48;97800.28;;;18.98;68.18
61035;BME280;46916;40.564;-7.958;2023-07-31T06:49:49;97794.00;;;18.99;67.97
61035;BME280;46916;40.564;-7.958;2023-07-31T06:51:49;97798.91;;;19.02;68.06
61035;BME280;46916;40.564;-7.958;2023-07-31T06:53:49;97801.41;;;19.03;67.92
61035;BME280;46916;40.564;-7.958;2023-07-31T06:55:50;97803.25;;;19.03;67.93
61035;BME280;46916;40.564;-7.958;2023-07-31T06:57:52;97801.75;;;19.00;67.74
61035;BME280;46916;40.564;-7.958;2023-07-31T06:59:53;97804.13;;;18.95;67.96
61035;BME280;46916;40.564;-7.958;2023-07-31T07:01:54;97806.78;;;18.95;67.96
61035;BME280;46916;40.564;-7.958;2023-07-31T07:03:54;97806.09;;;18.93;68.00
61035;BME280;46916;40.564;-7.958;2023-07-31T07:05:55;97804.78;;;18.89;68.11
61035;BME280;46916;40.564;-7.958;2023-07-31T07:07:55;97806.00;;;18.87;68.04
61035;BME280;46916;40.564;-7.958;2023-07-31T07:09:56;97808.16;;;18.83;68.05
61035;BME280;46916;40.564;-7.958;2023-07-31T07:11:56;97818.91;;;18.81;67.91
61035;BME280;46916;40.564;-7.958;2023-07-31T07:13:57;97818.59;;;18.85;67.96
61035;BME280;46916;40.564;-7.958;2023-07-31T07:15:57;97817.09;;;18.90;67.73
61035;BME280;46916;40.564;-7.958;2023-07-31T07:17:58;97815.06;;;18.92;67.57
61035;BME280;46916;40.564;-7.958;2023-07-31T07:19:59;97821.88;;;18.95;67.56
61035;BME280;46916;40.564;-7.958;2023-07-31T07:21:59;97820.69;;;18.97;67.41
61035;BME280;46916;40.564;-7.958;2023-07-31T07:24:02;97824.66;;;19.01;67.33
61035;BME280;46916;40.564;-7.958;2023-07-31T07:26:02;97828.13;;;19.02;67.35
61035;BME280;46916;40.564;-7.958;2023-07-31T07:28:03;97834.44;;;19.01;67.32
61035;BME280;46916;40.564;-7.958;2023-07-31T07:30:04;97832.13;;;18.98;67.20
61035;BME280;46916;40.564;-7.958;2023-07-31T07:32:04;97831.69;;;18.86;67.57
61035;BME280;46916;40.564;-7.958;2023-07-31T07:34:05;97836.38;;;18.68;67.84
61035;BME280;46916;40.564;-7.958;2023-07-31T07:36:06;97829.94;;;18.62;68.02
61035;BME280;46916;40.564;-7.958;2023-07-31T07:38:09;97834.56;;;18.60;68.37
61035;BME280;46916;40.564;-7.958;2023-07-31T07:40:10;97833.06;;;18.66;68.23
61035;BME280;46916;40.564;-7.958;2023-07-31T07:42:10;97833.06;;;18.74;67.98
61035;BME280;46916;40.564;-7.958;2023-07-31T07:44:11;97829.50;;;18.90;67.66
61035;BME280;46916;40.564;-7.958;2023-07-31T07:46:11;97837.91;;;19.01;67.62
61035;BME280;46916;40.564;-7.958;2023-07-31T07:48:12;97833.56;;;19.09;66.84
61035;BME280;46916;40.564;-7.958;2023-07-31T07:50:12;97834.44;;;19.01;67.17
61035;BME280;46916;40.564;-7.958;2023-07-31T07:52:13;97837.63;;;18.96;67.41
61035;BME280;46916;40.564;-7.958;2023-07-31T07:54:14;97828.50;;;18.99;67.71
61035;BME280;46916;40.564;-7.958;2023-07-31T07:56:14;97830.66;;;18.95;67.66
61035;BME280;46916;40.564;-7.958;2023-07-31T07:58:15;97837.63;;;18.96;67.64
61035;BME280;46916;40.564;-7.958;2023-07-31T08:00:15;97831.94;;;19.08;67.57
61035;BME280;46916;40.564;-7.958;2023-07-31T08:02:17;97836.53;;;19.14;67.05
61035;BME280;46916;40.564;-7.958;2023-07-31T08:04:17;97828.88;;;19.19;67.13
61035;BME280;46916;40.564;-7.958;2023-07-31T08:06:18;97835.63;;;19.29;66.90
61035;BME280;46916;40.564;-7.958;2023-07-31T08:08:19;97840.19;;;19.44;66.42
61035;BME280;46916;40.564;-7.958;2023-07-31T08:10:20;97835.72;;;19.67;65.97
61035;BME280;46916;40.564;-7.958;2023-07-31T08:12:20;97839.75;;;19.86;64.96
61035;BME280;46916;40.564;-7.958;2023-07-31T08:14:21;97841.75;;;19.84;64.47
61035;BME280;46916;40.564;-7.958;2023-07-31T08:16:22;97844.66;;;19.74;64.90
61035;BME280;46916;40.564;-7.958;2023-07-31T08:18:22;97837.75;;;19.65;65.51
61035;BME280;46916;40.564;-7.958;2023-07-31T08:20:23;97843.06;;;19.65;65.52
61035;BME280;46916;40.564;-7.958;2023-07-31T08:22:24;97838.09;;;19.62;65.27
61035;BME280;46916;40.564;-7.958;2023-07-31T08:24:24;97841.25;;;19.58;65.95
61035;BME280;46916;40.564;-7.958;2023-07-31T08:26:25;97843.88;;;19.66;65.97
61035;BME280;46916;40.564;-7.958;2023-07-31T08:28:25;97846.47;;;19.74;65.65
61035;BME280;46916;40.564;-7.958;2023-07-31T08:30:26;97845.53;;;19.67;65.06
61035;BME280;46916;40.564;-7.958;2023-07-31T08:32:26;97846.22;;;19.61;65.62
61035;BME280;46916;40.564;-7.958;2023-07-31T08:34:27;97838.22;;;19.69;65.25
61035;BME280;46916;40.564;-7.958;2023-07-31T08:36:27;97843.00;;;19.73;64.87
61035;BME280;46916;40.564;-7.958;2023-07-31T08:38:28;97843.63;;;19.75;64.75
61035;BME280;46916;40.564;-7.958;2023-07-31T08:40:29;97846.88;;;19.86;64.64
61035;BME280;46916;40.564;-7.958;2023-07-31T08:42:30;97844.03;;;19.87;64.62
61035;BME280;46916;40.564;-7.958;2023-07-31T08:44:31;97848.59;;;19.78;65.14
61035;BME280;46916;40.564;-7.958;2023-07-31T08:46:32;97841.63;;;19.77;65.25
61035;BME280;46916;40.564;-7.958;2023-07-31T08:48:33;97841.84;;;19.76;65.61
61035;BME280;46916;40.564;-7.958;2023-07-31T08:50:35;97843.41;;;19.85;65.05
61035;BME280;46916;40.564;-7.958;2023-07-31T08:52:36;97835.78;;;19.82;65.23
61035;BME280;46916;40.564;-7.958;2023-07-31T08:54:37;97842.69;;;19.91;64.96
61035;BME280;46916;40.564;-7.958;2023-07-31T08:56:37;97828.97;;;20.02;64.59
61035;BME280;46916;40.564;-7.958;2023-07-31T08:58:39;97830.00;;;20.16;64.11
61035;BME280;46916;40.564;-7.958;2023-07-31T09:00:40;97823.16;;;20.22;63.62
61035;BME280;46916;40.564;-7.958;2023-07-31T09:02:43;97824.59;;;20.24;63.89
61035;BME280;46916;40.564;-7.958;2023-07-31T09:04:45;97819.75;;;20.28;63.56
61035;BME280;46916;40.564;-7.958;2023-07-31T09:06:46;97814.72;;;20.33;63.79
61035;BME280;46916;40.564;-7.958;2023-07-31T09:08:48;97820.59;;;20.43;63.15
61035;BME280;46916;40.564;-7.958;2023-07-31T09:10:49;97821.06;;;20.47;63.19
61035;BME280;46916;40.564;-7.958;2023-07-31T09:12:53;97815.94;;;20.45;62.85
61035;BME280;46916;40.564;-7.958;2023-07-31T09:14:53;97817.06;;;20.51;63.17
61035;BME280;46916;40.564;-7.958;2023-07-31T09:16:57;97815.56;;;20.48;63.66
61035;BME280;46916;40.564;-7.958;2023-07-31T09:19:00;97818.69;;;20.52;63.42
61035;BME280;46916;40.564;-7.958;2023-07-31T09:23:13;97817.44;;;20.63;62.53
61035;BME280;46916;40.564;-7.958;2023-07-31T09:27:14;97821.44;;;20.73;62.50
61035;BME280;46916;40.564;-7.958;2023-07-31T09:29:18;97814.38;;;20.81;62.65
61035;BME280;46916;40.564;-7.958;2023-07-31T09:31:31;97815.09;;;20.89;62.06
61035;BME280;46916;40.564;-7.958;2023-07-31T09:33:31;97816.22;;;20.95;61.95
61035;BME280;46916;40.564;-7.958;2023-07-31T09:35:33;97823.06;;;21.04;62.11
61035;BME280;46916;40.564;-7.958;2023-07-31T09:37:34;97819.84;;;21.09;61.89
61035;BME280;46916;40.564;-7.958;2023-07-31T09:39:45;97817.53;;;21.06;61.77
61035;BME280;46916;40.564;-7.958;2023-07-31T09:41:53;97815.72;;;21.06;61.86
61035;BME280;46916;40.564;-7.958;2023-07-31T09:43:54;97818.25;;;21.14;62.14
61035;BME280;46916;40.564;-7.958;2023-07-31T09:45:55;97818.81;;;21.24;61.55
61035;BME280;46916;40.564;-7.958;2023-07-31T09:47:57;97821.38;;;21.33;61.48
61035;BME280;46916;40.564;-7.958;2023-07-31T09:49:57;97817.59;;;21.27;61.35
61035;BME280;46916;40.564;-7.958;2023-07-31T09:51:58;97819.25;;;21.28;61.87
61035;BME280;46916;40.564;-7.958;2023-07-31T09:53:58;97820.63;;;21.39;61.52
61035;BME280;46916;40.564;-7.958;2023-07-31T09:55:59;97813.75;;;21.51;61.68
61035;BME280;46916;40.564;-7.958;2023-07-31T09:58:02;97813.47;;;21.61;61.24
61035;BME280;46916;40.564;-7.958;2023-07-31T10:00:04;97812.06;;;21.65;60.87
61035;BME280;46916;40.564;-7.958;2023-07-31T10:02:13;97810.69;;;21.69;60.89
61035;BME280;46916;40.564;-7.958;2023-07-31T10:04:15;97808.06;;;21.75;60.33
61035;BME280;46916;40.564;-7.958;2023-07-31T10:06:19;97809.97;;;21.82;59.68
61035;BME280;46916;40.564;-7.958;2023-07-31T10:08:20;97803.44;;;21.84;59.98
61035;BME280;46916;40.564;-7.958;2023-07-31T10:10:22;97800.56;;;21.86;60.33
61035;BME280;46916;40.564;-7.958;2023-07-31T10:12:23;97799.53;;;21.87;60.05
61035;BME280;46916;40.564;-7.958;2023-07-31T10:14:25;97795.09;;;21.94;60.30
61035;BME280;46916;40.564;-7.958;2023-07-31T10:16:26;97790.81;;;21.99;60.24
61035;BME280;46916;40.564;-7.958;2023-07-31T10:18:27;97793.31;;;22.01;60.04
61035;BME280;46916;40.564;-7.958;2023-07-31T10:20:28;97796.16;;;21.99;60.00
61035;BME280;46916;40.564;-7.958;2023-07-31T10:22:29;97795.78;;;22.02;59.96
61035;BME280;46916;40.564;-7.958;2023-07-31T10:24:30;97800.16;;;22.10;59.71
61035;BME280;46916;40.564;-7.958;2023-07-31T10:26:31;97796.53;;;22.18;59.23
61035;BME280;46916;40.564;-7.958;2023-07-31T10:28:33;97800.28;;;22.23;59.29
61035;BME280;46916;40.564;-7.958;2023-07-31T10:30:34;97798.41;;;22.24;59.05
61035;BME280;46916;40.564;-7.958;2023-07-31T10:32:38;97805.00;;;22.28;59.12
61035;BME280;46916;40.564;-7.958;2023-07-31T10:34:41;97798.28;;;22.32;59.29
61035;BME280;46916;40.564;-7.958;2023-07-31T10:36:41;97797.69;;;22.37;59.35
61035;BME280;46916;40.564;-7.958;2023-07-31T10:38:42;97798.13;;;22.40;58.95
61035;BME280;46916;40.564;-7.958;2023-07-31T10:40:42;97790.94;;;22.41;58.86
61035;BME280;46916;40.564;-7.958;2023-07-31T10:44:47;97797.19;;;22.55;58.63
61035;BME280;46916;40.564;-7.958;2023-07-31T10:46:48;97788.38;;;22.61;58.22